sensor_id;sensor_type;location;lat;lon;timestamp;pressure;altitude;pressure_sealevel;temperature;humidity
77333;BME280;66408;51.326;12.070;2023-08-01T00:00:42;99379.88;;;18.70;77.50
77333;BME280;66408;51.326;12.070;2023-08-01T00:03:09;99373.97;;;18.67;77.38
77333;BME280;66408;51.326;12.070;2023-08-01T00:05:36;99383.75;;;18.61;77.61
77333;BME280;66408;51.326;12.070;2023-08-01T00:08:03;99382.59;;;18.62;77.36
77333;BME280;66408;51.326;12.070;2023-08-01T00:10:30;99374.34;;;18.62;77.27
77333;BME280;66408;51.326;12.070;2023-08-01T00:12:56;99374.75;;;18.64;76.82
77333;BME280;66408;51.326;12.070;2023-08-01T00:15:23;99367.69;;;18.71;76.84
77333;BME280;66408;51.326;12.070;2023-08-01T00:17:49;99382.22;;;18.67;77.45
77333;BME280;66408;51.326;12.070;2023-08-01T00:20:16;99369.66;;;18.67;77.52
77333;BME280;66408;51.326;12.070;2023-08-01T00:22:42;99362.94;;;18.64;77.60
77333;BME280;66408;51.326;12.070;2023-08-01T00:25:09;99360.94;;;18.61;77.13
77333;BME280;66408;51.326;12.070;2023-08-01T00:27:36;99362.91;;;18.60;76.96
77333;BME280;66408;51.326;12.070;2023-08-01T00:30:07;99368.41;;;18.60;77.85
77333;BME280;66408;51.326;12.070;2023-08-01T00:32:34;99363.69;;;18.61;77.55
77333;BME280;66408;51.326;12.070;2023-08-01T00:35:01;99358.63;;;18.67;76.45
77333;BME280;66408;51.326;12.070;2023-08-01T00:37:28;99343.66;;;18.64;76.81
77333;BME280;66408;51.326;12.070;2023-08-01T00:39:54;99348.75;;;18.62;76.79
77333;BME280;66408;51.326;12.070;2023-08-01T00:42:21;99339.28;;;18.59;77.12
77333;BME280;66408;51.326;12.070;2023-08-01T00:44:47;99351.03;;;18.56;76.60
77333;BME280;66408;51.326;12.070;2023-08-01T00:47:15;99341.97;;;18.56;76.71
77333;BME280;66408;51.326;12.070;2023-08-01T00:49:42;99333.34;;;18.57;76.45
77333;BME280;66408;51.326;12.070;2023-08-01T00:52:09;99318.38;;;18.55;76.46
77333;BME280;66408;51.326;12.070;2023-08-01T00:54:36;99310.91;;;18.55;76.32
77333;BME280;66408;51.326;12.070;2023-08-01T00:57:03;99313.66;;;18.52;77.16
77333;BME280;66408;51.326;12.070;2023-08-01T00:59:31;99302.63;;;18.52;76.67
77333;BME280;66408;51.326;12.070;2023-08-01T01:01:58;99306.97;;;18.53;76.85
77333;BME280;66408;51.326;12.070;2023-08-01T01:04:26;99299.84;;;18.48;76.33
77333;BME280;66408;51.326;12.070;2023-08-01T01:07:06;99289.66;;;18.52;76.85
77333;BME280;66408;51.326;12.070;2023-08-01T01:09:33;99274.31;;;18.55;76.24
77333;BME280;66408;51.326;12.070;2023-08-01T01:12:00;99265.66;;;18.56;75.88
77333;BME280;66408;51.326;12.070;2023-08-01T01:14:27;99271.56;;;18.55;76.24
77333;BME280;66408;51.326;12.070;2023-08-01T01:16:54;99264.16;;;18.59;76.27
77333;BME280;66408;51.326;12.070;2023-08-01T01:19:21;99259.00;;;18.57;76.19
77333;BME280;66408;51.326;12.070;2023-08-01T01:21:48;99255.44;;;18.57;76.13
77333;BME280;66408;51.326;12.070;2023-08-01T01:24:26;99255.44;;;18.57;76.08
77333;BME280;66408;51.326;12.070;2023-08-01T01:26:56;99250.31;;;18.55;76.19
77333;BME280;66408;51.326;12.070;2023-08-01T01:29:23;99255.03;;;18.55;76.18
77333;BME280;66408;51.326;12.070;2023-08-01T01:31:50;99243.66;;;18.53;76.54
77333;BME280;66408;51.326;12.070;2023-08-01T01:34:16;99257.41;;;18.53;77.06
77333;BME280;66408;51.326;12.070;2023-08-01T01:36:43;99234.56;;;18.49;77.74
77333;BME280;66408;51.326;12.070;2023-08-01T01:39:09;99239.66;;;18.47;78.61
77333;BME280;66408;51.326;12.070;2023-08-01T01:41:36;99238.44;;;18.44;78.42
77333;BME280;66408;51.326;12.070;2023-08-01T01:44:03;99233.31;;;18.43;78.59
77333;BME280;66408;51.326;12.070;2023-08-01T01:46:29;99227.44;;;18.41;79.22
77333;BME280;66408;51.326;12.070;2023-08-01T01:48:56;99219.16;;;18.37;79.56
77333;BME280;66408;51.326;12.070;2023-08-01T01:51:28;99221.50;;;18.35;79.91
77333;BME280;66408;51.326;12.070;2023-08-01T01:53:55;99211.66;;;18.34;80.11
77333;BME280;66408;51.326;12.070;2023-08-01T01:56:22;99216.75;;;18.28;80.81
77333;BME280;66408;51.326;12.070;2023-08-01T01:58:48;99203.75;;;18.25;81.45
77333;BME280;66408;51.326;12.070;2023-08-01T02:01:15;99194.69;;;18.25;81.53
77333;BME280;66408;51.326;12.070;2023-08-01T02:03:41;99197.03;;;18.23;81.75
77333;BME280;66408;51.326;12.070;2023-08-01T02:06:08;99182.09;;;18.24;81.55
77333;BME280;66408;51.326;12.070;2023-08-01T02:08:34;99177.38;;;18.24;82.18
77333;BME280;66408;51.326;12.070;2023-08-01T02:11:01;99175.03;;;18.26;81.92
77333;BME280;66408;51.326;12.070;2023-08-01T02:13:28;99160.13;;;18.27;81.34
77333;BME280;66408;51.326;12.070;2023-08-01T02:15:57;99160.88;;;18.24;81.60
77333;BME280;66408;51.326;12.070;2023-08-01T02:18:23;99161.66;;;18.25;82.07
77333;BME280;66408;51.326;12.070;2023-08-01T02:20:50;99159.28;;;18.23;81.71
77333;BME280;66408;51.326;12.070;2023-08-01T02:23:16;99158.53;;;18.26;81.30
77333;BME280;66408;51.326;12.070;2023-08-01T02:25:43;99150.69;;;18.28;80.85
77333;BME280;66408;51.326;12.070;2023-08-01T02:28:09;99151.06;;;18.27;80.64
77333;BME280;66408;51.326;12.070;2023-08-01T02:30:36;99145.94;;;18.25;80.52
77333;BME280;66408;51.326;12.070;2023-08-01T02:33:03;99139.25;;;18.23;80.62
77333;BME280;66408;51.326;12.070;2023-08-01T02:35:30;99140.03;;;18.23;80.70
77333;BME280;66408;51.326;12.070;2023-08-01T02:37:57;99136.91;;;18.25;80.49
77333;BME280;66408;51.326;12.070;2023-08-01T02:40:23;99121.19;;;18.25;80.68
77333;BME280;66408;51.326;12.070;2023-08-01T02:42:50;99116.06;;;18.24;80.36
77333;BME280;66408;51.326;12.070;2023-08-01T02:45:16;99114.47;;;18.23;80.41
77333;BME280;66408;51.326;12.070;2023-08-01T02:47:43;99106.22;;;18.23;80.44
77333;BME280;66408;51.326;12.070;2023-08-01T02:50:10;99096.75;;;18.17;80.69
77333;BME280;66408;51.326;12.070;2023-08-01T02:52:36;99092.06;;;18.17;80.67
77333;BME280;66408;51.326;12.070;2023-08-01T02:55:03;99090.88;;;18.22;80.77
77333;BME280;66408;51.326;12.070;2023-08-01T02:57:30;99091.69;;;18.26;80.32
77333;BME280;66408;51.326;12.070;2023-08-01T02:59:56;99084.22;;;18.30;80.53
77333;BME280;66408;51.326;12.070;2023-08-01T03:02:23;99085.44;;;18.33;80.27
77333;BME280;66408;51.326;12.070;2023-08-01T03:04:49;99086.97;;;18.30;79.81
77333;BME280;66408;51.326;12.070;2023-08-01T03:07:16;99090.13;;;18.25;80.77
77333;BME280;66408;51.326;12.070;2023-08-01T03:09:42;99087.38;;;18.25;80.74
77333;BME280;66408;51.326;12.070;2023-08-01T03:12:09;99092.06;;;18.24;81.17
77333;BME280;66408;51.326;12.070;2023-08-01T03:14:36;99082.25;;;18.23;81.65
77333;BME280;66408;51.326;12.070;2023-08-01T03:17:02;99083.47;;;18.29;80.79
77333;BME280;66408;51.326;12.070;2023-08-01T03:19:29;99086.56;;;18.24;81.10
77333;BME280;66408;51.326;12.070;2023-08-01T03:21:55;99093.69;;;18.29;80.89
77333;BME280;66408;51.326;12.070;2023-08-01T03:24:23;99092.53;;;18.37;80.53
77333;BME280;66408;51.326;12.070;2023-08-01T03:26:50;99094.09;;;18.35;80.64
77333;BME280;66408;51.326;12.070;2023-08-01T03:29:16;99096.09;;;18.41;80.67
77333;BME280;66408;51.326;12.070;2023-08-01T03:31:43;99097.69;;;18.46;79.97
77333;BME280;66408;51.326;12.070;2023-08-01T03:34:09;99094.19;;;18.52;79.69
77333;BME280;66408;51.326;12.070;2023-08-01T03:36:36;99095.75;;;18.57;79.43
77333;BME280;66408;51.326;12.070;2023-08-01T03:39:03;99094.59;;;18.54;79.53
77333;BME280;66408;51.326;12.070;2023-08-01T03:41:33;99083.97;;;18.53;80.12
77333;BME280;66408;51.326;12.070;2023-08-01T03:43:59;99083.53;;;18.47;79.99
77333;BME280;66408;51.326;12.070;2023-08-01T03:46:26;99083.50;;;18.44;80.11
77333;BME280;66408;51.326;12.070;2023-08-01T03:48:53;99078.41;;;18.46;80.41
77333;BME280;66408;51.326;12.070;2023-08-01T03:51:19;99076.44;;;18.39;80.99
77333;BME280;66408;51.326;12.070;2023-08-01T03:53:47;99068.53;;;18.34;80.91
77333;BME280;66408;51.326;12.070;2023-08-01T03:56:28;99068.56;;;18.38;81.10
77333;BME280;66408;51.326;12.070;2023-08-01T03:58:55;99072.84;;;18.31;80.92
77333;BME280;66408;51.326;12.070;2023-08-01T04:01:22;99058.69;;;18.29;81.20
77333;BME280;66408;51.326;12.070;2023-08-01T04:03:48;99050.81;;;18.31;81.22
77333;BME280;66408;51.326;12.070;2023-08-01T04:06:15;99053.97;;;18.30;80.95
77333;BME280;66408;51.326;12.070;2023-08-01T04:08:41;99046.88;;;18.25;81.60
77333;BME280;66408;51.326;12.070;2023-08-01T04:11:08;99041.75;;;18.24;81.65
77333;BME280;66408;51.326;12.070;2023-08-01T04:13:34;99031.53;;;18.24;81.47
77333;BME280;66408;51.326;12.070;2023-08-01T04:16:01;99031.13;;;18.22;81.82
77333;BME280;66408;51.326;12.070;2023-08-01T04:18:27;99026.78;;;18.18;82.05
77333;BME280;66408;51.326;12.070;2023-08-01T04:20:54;99027.56;;;18.15;82.22
77333;BME280;66408;51.326;12.070;2023-08-01T04:23:21;99023.25;;;18.21;81.74
77333;BME280;66408;51.326;12.070;2023-08-01T04:25:47;99019.34;;;18.22;81.93
77333;BME280;66408;51.326;12.070;2023-08-01T04:28:13;99017.75;;;18.21;81.86
77333;BME280;66408;51.326;12.070;2023-08-01T04:30:40;99007.94;;;18.16;82.34
77333;BME280;66408;51.326;12.070;2023-08-01T04:33:06;99005.94;;;18.13;82.70
77333;BME280;66408;51.326;12.070;2023-08-01T04:35:33;99002.03;;;18.14;82.43
77333;BME280;66408;51.326;12.070;2023-08-01T04:37:59;98997.72;;;18.17;82.55
77333;BME280;66408;51.326;12.070;2023-08-01T04:40:26;98995.31;;;18.12;83.08
77333;BME280;66408;51.326;12.070;2023-08-01T04:42:52;98988.66;;;18.13;82.84
77333;BME280;66408;51.326;12.070;2023-08-01T04:45:20;98990.19;;;18.10;83.18
77333;BME280;66408;51.326;12.070;2023-08-01T04:47:46;98983.94;;;18.13;83.16
77333;BME280;66408;51.326;12.070;2023-08-01T04:50:13;98987.09;;;18.15;82.92
77333;BME280;66408;51.326;12.070;2023-08-01T04:52:39;98981.97;;;18.14;83.39
77333;BME280;66408;51.326;12.070;2023-08-01T04:55:06;98984.69;;;18.10;83.81
77333;BME280;66408;51.326;12.070;2023-08-01T04:57:33;98986.25;;;18.08;84.29
77333;BME280;66408;51.326;12.070;2023-08-01T04:59:59;98979.19;;;18.07;84.05
77333;BME280;66408;51.326;12.070;2023-08-01T05:02:26;98976.41;;;18.07;84.61
77333;BME280;66408;51.326;12.070;2023-08-01T05:04:52;98978.78;;;18.08;84.66
77333;BME280;66408;51.326;12.070;2023-08-01T05:07:19;98975.28;;;18.11;84.22
77333;BME280;66408;51.326;12.070;2023-08-01T05:09:45;98969.78;;;18.11;84.44
77333;BME280;66408;51.326;12.070;2023-08-01T05:12:12;98970.56;;;18.12;84.48
77333;BME280;66408;51.326;12.070;2023-08-01T05:14:39;98966.63;;;18.09;84.85
77333;BME280;66408;51.326;12.070;2023-08-01T05:17:05;98974.88;;;18.09;84.84
77333;BME280;66408;51.326;12.070;2023-08-01T05:19:32;98964.28;;;18.11;85.00
77333;BME280;66408;51.326;12.070;2023-08-01T05:21:59;98962.31;;;18.12;85.00
77333;BME280;66408;51.326;12.070;2023-08-01T05:24:25;98962.28;;;18.05;85.46
77333;BME280;66408;51.326;12.070;2023-08-01T05:26:52;98957.56;;;18.02;86.12
77333;BME280;66408;51.326;12.070;2023-08-01T05:29:18;98965.03;;;18.01;86.16
77333;BME280;66408;51.326;12.070;2023-08-01T05:31:45;98958.72;;;18.01;86.33
77333;BME280;66408;51.326;12.070;2023-08-01T05:34:11;98959.13;;;18.03;85.92
77333;BME280;66408;51.326;12.070;2023-08-01T05:36:38;98949.69;;;18.00;86.68
77333;BME280;66408;51.326;12.070;2023-08-01T05:39:05;98943.00;;;18.01;86.34
77333;BME280;66408;51.326;12.070;2023-08-01T05:41:31;98936.72;;;18.01;86.34
77333;BME280;66408;51.326;12.070;2023-08-01T05:43:58;98922.59;;;18.02;86.33
77333;BME280;66408;51.326;12.070;2023-08-01T05:46:24;98926.09;;;17.99;86.46
77333;BME280;66408;51.326;12.070;2023-08-01T05:48:51;98930.00;;;17.94;86.62
77333;BME280;66408;51.326;12.070;2023-08-01T05:51:17;98929.22;;;17.90;87.47
77333;BME280;66408;51.326;12.070;2023-08-01T05:53:44;98916.25;;;17.87;87.37
77333;BME280;66408;51.326;12.070;2023-08-01T05:56:11;98929.22;;;17.90;87.03
77333;BME280;66408;51.326;12.070;2023-08-01T05:58:37;98922.94;;;17.90;87.26
77333;BME280;66408;51.326;12.070;2023-08-01T06:01:11;98929.59;;;17.89;88.13
77333;BME280;66408;51.326;12.070;2023-08-01T06:03:38;98933.56;;;17.91;87.80
77333;BME280;66408;51.326;12.070;2023-08-01T06:06:05;98945.34;;;17.92;87.82
77333;BME280;66408;51.326;12.070;2023-08-01T06:08:32;98945.72;;;17.94;88.09
77333;BME280;66408;51.326;12.070;2023-08-01T06:11:01;98941.81;;;17.91;88.19
77333;BME280;66408;51.326;12.070;2023-08-01T06:13:28;98934.34;;;17.92;87.62
77333;BME280;66408;51.326;12.070;2023-08-01T06:15:55;98928.84;;;17.92;88.30
77333;BME280;66408;51.326;12.070;2023-08-01T06:18:21;98928.84;;;17.92;88.61
77333;BME280;66408;51.326;12.070;2023-08-01T06:20:48;98922.94;;;17.93;88.50
77333;BME280;66408;51.326;12.070;2023-08-01T06:23:14;98922.94;;;17.97;88.46
77333;BME280;66408;51.326;12.070;2023-08-01T06:25:41;98913.13;;;17.96;88.11
77333;BME280;66408;51.326;12.070;2023-08-01T06:28:07;98909.59;;;17.95;87.90
77333;BME280;66408;51.326;12.070;2023-08-01T06:30:34;98907.22;;;17.94;88.39
77333;BME280;66408;51.326;12.070;2023-08-01T06:33:00;98913.13;;;17.96;88.58
77333;BME280;66408;51.326;12.070;2023-08-01T06:35:27;98911.53;;;17.95;88.93
77333;BME280;66408;51.326;12.070;2023-08-01T06:37:54;98911.94;;;17.97;88.52
77333;BME280;66408;51.326;12.070;2023-08-01T06:40:20;98915.50;;;17.98;88.57
77333;BME280;66408;51.326;12.070;2023-08-01T06:42:47;98911.53;;;17.95;88.72
77333;BME280;66408;51.326;12.070;2023-08-01T06:45:13;98920.19;;;17.93;88.37
77333;BME280;66408;51.326;12.070;2023-08-01T06:47:40;98919.78;;;17.95;88.72
77333;BME280;66408;51.326;12.070;2023-08-01T06:50:07;98931.59;;;17.99;88.43
77333;BME280;66408;51.326;12.070;2023-08-01T06:52:33;98950.03;;;17.95;88.81
77333;BME280;66408;51.326;12.070;2023-08-01T06:55:00;98958.31;;;17.99;88.67
77333;BME280;66408;51.326;12.070;2023-08-01T06:57:26;98969.72;;;17.97;88.60
77333;BME280;66408;51.326;12.070;2023-08-01T06:59:53;98971.28;;;17.98;88.81
77333;BME280;66408;51.326;12.070;2023-08-01T07:02:19;98978.75;;;17.98;88.13
77333;BME280;66408;51.326;12.070;2023-08-01T07:04:46;98985.81;;;17.99;88.84
77333;BME280;66408;51.326;12.070;2023-08-01T07:07:13;98988.56;;;17.99;88.94
77333;BME280;66408;51.326;12.070;2023-08-01T07:09:40;98983.88;;;17.99;89.33
77333;BME280;66408;51.326;12.070;2023-08-01T07:12:07;98974.81;;;17.95;89.26
77333;BME280;66408;51.326;12.070;2023-08-01T07:14:34;98982.66;;;17.97;89.43
77333;BME280;66408;51.326;12.070;2023-08-01T07:17:00;98992.88;;;17.96;89.08
77333;BME280;66408;51.326;12.070;2023-08-01T07:19:27;98981.88;;;17.92;88.94
77333;BME280;66408;51.326;12.070;2023-08-01T07:21:54;98969.31;;;17.91;89.17
77333;BME280;66408;51.326;12.070;2023-08-01T07:24:24;98962.63;;;17.92;89.10
77333;BME280;66408;51.326;12.070;2023-08-01T07:26:54;98919.41;;;17.89;88.46
77333;BME280;66408;51.326;12.070;2023-08-01T07:29:21;98909.56;;;17.88;88.59
77333;BME280;66408;51.326;12.070;2023-08-01T07:31:47;98906.41;;;17.86;88.43
77333;BME280;66408;51.326;12.070;2023-08-01T07:34:14;98895.78;;;17.81;88.56
77333;BME280;66408;51.326;12.070;2023-08-01T07:36:41;98893.81;;;17.78;88.30
77333;BME280;66408;51.326;12.070;2023-08-01T07:39:08;98875.34;;;17.75;88.13
77333;BME280;66408;51.326;12.070;2023-08-01T07:41:35;98834.47;;;17.74;87.56
77333;BME280;66408;51.326;12.070;2023-08-01T07:44:02;98839.16;;;17.70;88.23
77333;BME280;66408;51.326;12.070;2023-08-01T07:46:29;98899.28;;;17.68;88.52
77333;BME280;66408;51.326;12.070;2023-08-01T07:48:56;98951.88;;;17.66;88.85
77333;BME280;66408;51.326;12.070;2023-08-01T07:51:22;98934.59;;;17.69;88.86
77333;BME280;66408;51.326;12.070;2023-08-01T07:53:51;98923.22;;;17.67;88.72
77333;BME280;66408;51.326;12.070;2023-08-01T07:56:18;98920.06;;;17.65;89.69
77333;BME280;66408;51.326;12.070;2023-08-01T07:58:45;98930.28;;;17.65;88.84
77333;BME280;66408;51.326;12.070;2023-08-01T08:01:11;98928.31;;;17.65;88.22
77333;BME280;66408;51.326;12.070;2023-08-01T08:03:38;98947.94;;;17.64;87.72
77333;BME280;66408;51.326;12.070;2023-08-01T08:06:05;98942.38;;;17.60;87.71
77333;BME280;66408;51.326;12.070;2023-08-01T08:08:31;98938.44;;;17.57;88.45
77333;BME280;66408;51.326;12.070;2023-08-01T08:11:00;98926.31;;;17.62;88.49
77333;BME280;66408;51.326;12.070;2023-08-01T08:13:28;98911.44;;;17.67;89.17
77333;BME280;66408;51.326;12.070;2023-08-01T08:15:57;98907.53;;;17.75;88.56
77333;BME280;66408;51.326;12.070;2023-08-01T08:18:24;98912.28;;;17.78;88.34
77333;BME280;66408;51.326;12.070;2023-08-01T08:20:51;98909.53;;;17.78;88.33
77333;BME280;66408;51.326;12.070;2023-08-01T08:23:18;98905.19;;;17.80;88.32
77333;BME280;66408;51.326;12.070;2023-08-01T08:25:45;98910.69;;;17.80;88.10
77333;BME280;66408;51.326;12.070;2023-08-01T08:28:13;98919.75;;;17.84;87.63
77333;BME280;66408;51.326;12.070;2023-08-01T08:30:40;98912.31;;;17.88;87.49
77333;BME280;66408;51.326;12.070;2023-08-01T08:33:06;98904.06;;;17.88;87.10
77333;BME280;66408;51.326;12.070;2023-08-01T08:35:35;98916.25;;;17.87;86.52
77333;BME280;66408;51.326;12.070;2023-08-01T08:38:02;98916.22;;;17.84;86.29
77333;BME280;66408;51.326;12.070;2023-08-01T08:40:32;98911.09;;;17.82;86.15
77333;BME280;66408;51.326;12.070;2023-08-01T08:43:02;98910.69;;;17.80;86.48
77333;BME280;66408;51.326;12.070;2023-08-01T08:45:35;98904.44;;;17.87;86.68
77333;BME280;66408;51.326;12.070;2023-08-01T08:48:09;98915.06;;;17.88;86.49
77333;BME280;66408;51.326;12.070;2023-08-01T08:50:37;98904.47;;;17.90;85.97
77333;BME280;66408;51.326;12.070;2023-08-01T08:53:05;98911.91;;;17.93;86.71
77333;BME280;66408;51.326;12.070;2023-08-01T08:55:39;98904.47;;;17.98;87.18
77333;BME280;66408;51.326;12.070;2023-08-01T08:58:07;98909.63;;;18.03;87.12
77333;BME280;66408;51.326;12.070;2023-08-01T09:00:37;98902.94;;;18.07;87.59
77333;BME280;66408;51.326;12.070;2023-08-01T09:03:05;98913.16;;;18.10;87.48
77333;BME280;66408;51.326;12.070;2023-08-01T09:05:36;98918.69;;;18.14;88.06
77333;BME280;66408;51.326;12.070;2023-08-01T09:08:07;98906.13;;;18.16;87.66
77333;BME280;66408;51.326;12.070;2023-08-01T09:10:37;98922.22;;;18.18;87.99
77333;BME280;66408;51.326;12.070;2023-08-01T09:13:04;98912.41;;;18.24;88.39
77333;BME280;66408;51.326;12.070;2023-08-01T09:15:31;98921.47;;;18.28;87.92
77333;BME280;66408;51.326;12.070;2023-08-01T09:17:57;98909.31;;;18.36;87.01
77333;BME280;66408;51.326;12.070;2023-08-01T09:20:27;98926.59;;;18.44;87.36
77333;BME280;66408;51.326;12.070;2023-08-01T09:22:54;98930.94;;;18.48;87.58
77333;BME280;66408;51.326;12.070;2023-08-01T09:25:30;98928.19;;;18.55;87.54
77333;BME280;66408;51.326;12.070;2023-08-01T09:27:57;98932.53;;;18.53;86.16
77333;BME280;66408;51.326;12.070;2023-08-01T09:30:24;98933.72;;;18.52;85.93
77333;BME280;66408;51.326;12.070;2023-08-01T09:32:54;98962.44;;;18.51;86.18
77333;BME280;66408;51.326;12.070;2023-08-01T09:35:23;98958.47;;;18.48;85.85
77333;BME280;66408;51.326;12.070;2023-08-01T09:37:49;98967.13;;;18.47;85.72
77333;BME280;66408;51.326;12.070;2023-08-01T09:40:16;98961.59;;;18.43;85.75
77333;BME280;66408;51.326;12.070;2023-08-01T09:42:44;98965.53;;;18.42;85.72
77333;BME280;66408;51.326;12.070;2023-08-01T09:45:14;98969.84;;;18.43;86.11
77333;BME280;66408;51.326;12.070;2023-08-01T09:47:42;98969.09;;;18.39;86.37
77333;BME280;66408;51.326;12.070;2023-08-01T09:50:20;98967.53;;;18.42;86.25
77333;BME280;66408;51.326;12.070;2023-08-01T09:52:47;98979.69;;;18.44;85.79
77333;BME280;66408;51.326;12.070;2023-08-01T09:55:26;98970.66;;;18.44;86.58
77333;BME280;66408;51.326;12.070;2023-08-01T09:57:56;98981.69;;;18.47;87.00
77333;BME280;66408;51.326;12.070;2023-08-01T10:00:26;98980.88;;;18.47;87.39
77333;BME280;66408;51.326;12.070;2023-08-01T10:02:55;98990.72;;;18.48;87.54
77333;BME280;66408;51.326;12.070;2023-08-01T10:05:23;98984.06;;;18.52;87.13
77333;BME280;66408;51.326;12.070;2023-08-01T10:07:50;98971.09;;;18.53;86.24
77333;BME280;66408;51.326;12.070;2023-08-01T10:10:20;98973.81;;;18.56;86.28
77333;BME280;66408;51.326;12.070;2023-08-01T10:12:47;98976.25;;;18.61;85.96
77333;BME280;66408;51.326;12.070;2023-08-01T10:15:15;98987.25;;;18.69;86.63
77333;BME280;66408;51.326;12.070;2023-08-01T10:17:42;98997.91;;;18.74;85.20
77333;BME280;66408;51.326;12.070;2023-08-01T10:20:09;99002.22;;;18.82;84.92
77333;BME280;66408;51.326;12.070;2023-08-01T10:22:37;98980.22;;;18.89;83.66
77333;BME280;66408;51.326;12.070;2023-08-01T10:25:05;98984.94;;;18.99;83.25
77333;BME280;66408;51.326;12.070;2023-08-01T10:27:32;98988.88;;;19.05;83.08
77333;BME280;66408;51.326;12.070;2023-08-01T10:30:01;98984.94;;;19.13;80.06
77333;BME280;66408;51.326;12.070;2023-08-01T10:32:38;98999.91;;;19.19;80.75
77333;BME280;66408;51.326;12.070;2023-08-01T10:35:05;99001.47;;;19.24;79.85
77333;BME280;66408;51.326;12.070;2023-08-01T10:37:43;98999.88;;;19.30;79.06
77333;BME280;66408;51.326;12.070;2023-08-01T10:40:11;99001.06;;;19.29;80.63
77333;BME280;66408;51.326;12.070;2023-08-01T10:42:45;99000.69;;;19.27;78.75
77333;BME280;66408;51.326;12.070;2023-08-01T10:45:20;99006.19;;;19.34;77.66
77333;BME280;66408;51.326;12.070;2023-08-01T10:47:49;99004.63;;;19.40;76.13
77333;BME280;66408;51.326;12.070;2023-08-01T10:50:16;99003.44;;;19.45;76.72
77333;BME280;66408;51.326;12.070;2023-08-01T10:52:43;99010.53;;;19.56;76.93
77333;BME280;66408;51.326;12.070;2023-08-01T10:55:10;99011.72;;;19.62;77.93
77333;BME280;66408;51.326;12.070;2023-08-01T10:57:39;99020.78;;;19.63;78.43
77333;BME280;66408;51.326;12.070;2023-08-01T11:00:06;99019.97;;;19.66;77.76
77333;BME280;66408;51.326;12.070;2023-08-01T11:02:36;99019.97;;;19.66;74.94
77333;BME280;66408;51.326;12.070;2023-08-01T11:05:05;99019.97;;;19.77;75.68
77333;BME280;66408;51.326;12.070;2023-08-01T11:07:33;99002.19;;;20.02;76.65
77333;BME280;66408;51.326;12.070;2023-08-01T11:10:08;98998.91;;;20.39;74.45
77333;BME280;66408;51.326;12.070;2023-08-01T11:15:05;99016.00;;;20.83;70.25
77333;BME280;66408;51.326;12.070;2023-08-01T11:17:38;99015.09;;;21.00;68.39
77333;BME280;66408;51.326;12.070;2023-08-01T11:20:10;99017.41;;;21.05;67.38
77333;BME280;66408;51.326;12.070;2023-08-01T11:22:38;99025.00;;;20.94;67.91
77333;BME280;66408;51.326;12.070;2023-08-01T11:25:05;99025.47;;;20.82;67.49
77333;BME280;66408;51.326;12.070;2023-08-01T11:27:33;99018.44;;;20.73;68.13
77333;BME280;66408;51.326;12.070;2023-08-01T11:30:00;99019.66;;;20.65;66.11
77333;BME280;66408;51.326;12.070;2023-08-01T11:32:36;99031.53;;;20.62;66.93
77333;BME280;66408;51.326;12.070;2023-08-01T11:35:04;99034.22;;;20.76;65.19
77333;BME280;66408;51.326;12.070;2023-08-01T11:37:31;99032.91;;;20.92;64.54
77333;BME280;66408;51.326;12.070;2023-08-01T11:39:58;99037.56;;;21.02;64.60
77333;BME280;66408;51.326;12.070;2023-08-01T11:42:30;99028.44;;;21.12;63.58
77333;BME280;66408;51.326;12.070;2023-08-01T11:45:16;99033.94;;;21.19;66.43
77333;BME280;66408;51.326;12.070;2023-08-01T11:47:47;99026.44;;;21.20;66.34
77333;BME280;66408;51.326;12.070;2023-08-01T11:50:14;99033.84;;;21.30;65.93
77333;BME280;66408;51.326;12.070;2023-08-01T11:52:47;99031.34;;;21.46;65.64
77333;BME280;66408;51.326;12.070;2023-08-01T11:55:21;99028.41;;;21.64;66.50
77333;BME280;66408;51.326;12.070;2023-08-01T11:57:55;99033.69;;;21.88;64.27
77333;BME280;66408;51.326;12.070;2023-08-01T12:00:27;99024.47;;;22.02;62.48
77333;BME280;66408;51.326;12.070;2023-08-01T12:03:07;99021.53;;;22.20;61.37
77333;BME280;66408;51.326;12.070;2023-08-01T12:05:42;99020.84;;;22.43;59.29
77333;BME280;66408;51.326;12.070;2023-08-01T12:08:13;99021.34;;;22.65;60.83
77333;BME280;66408;51.326;12.070;2023-08-01T12:10:41;99017.97;;;22.80;60.47
77333;BME280;66408;51.326;12.070;2023-08-01T12:13:22;99032.44;;;22.95;59.23
77333;BME280;66408;51.326;12.070;2023-08-01T12:15:51;99040.91;;;23.11;59.38
77333;BME280;66408;51.326;12.070;2023-08-01T12:18:26;99043.34;;;23.33;57.32
77333;BME280;66408;51.326;12.070;2023-08-01T12:20:56;99041.63;;;23.39;56.60
77333;BME280;66408;51.326;12.070;2023-08-01T12:23:22;99045.00;;;23.53;56.20
77333;BME280;66408;51.326;12.070;2023-08-01T12:25:49;99042.28;;;23.73;56.71
77333;BME280;66408;51.326;12.070;2023-08-01T12:28:16;99044.97;;;23.77;54.80
77333;BME280;66408;51.326;12.070;2023-08-01T12:30:43;99043.78;;;23.78;55.05
77333;BME280;66408;51.326;12.070;2023-08-01T12:33:10;99034.56;;;23.61;54.06
77333;BME280;66408;51.326;12.070;2023-08-01T12:35:41;99036.75;;;23.73;53.76
77333;BME280;66408;51.326;12.070;2023-08-01T12:38:08;99035.19;;;23.92;54.16
77333;BME280;66408;51.326;12.070;2023-08-01T12:40:36;99040.41;;;24.10;54.16
77333;BME280;66408;51.326;12.070;2023-08-01T12:43:02;99028.31;;;24.20;54.24
77333;BME280;66408;51.326;12.070;2023-08-01T12:45:29;99022.56;;;24.30;54.42
77333;BME280;66408;51.326;12.070;2023-08-01T12:47:56;99029.81;;;24.24;52.61
77333;BME280;66408;51.326;12.070;2023-08-01T12:50:22;99026.56;;;24.29;53.24
77333;BME280;66408;51.326;12.070;2023-08-01T12:52:49;99032.41;;;24.35;53.27
77333;BME280;66408;51.326;12.070;2023-08-01T12:55:15;99029.97;;;24.37;52.26